BVX1892 CYYC-PHNL
Flight info
| Callsign | BVX1892 |
|---|---|
| Flight time | N/A |
| Altitude | 34000 |
| Route | BOTAG Q894 BINVO DCT HQM C1418 SEDAR/N0444F360 DCT 42N130W 36N135W 32N140W DCT BILLO/N0442F380 R464 BITTA INOYI1 |
| Aircraft | B738/M-SDE2E3FGHIRWXY/LB1 |
Departure
| Time | 2026-05-04 17:38 |
|---|---|
| Airport | Calgary International Airport (CYYC) |
Arrival
| Time | N/A |
|---|---|
| Airport | Daniel K. Inouye International Airport (PHNL) |
| Time | Latitude | Longitude | Altitude | Speed | Heading |
|---|---|---|---|---|---|
| 2026-05-04 17:07 | 51.12936 | -114.00132 | 3558 ft | 0 kts | 0° |
| 2026-05-04 17:28 | 51.12910 | -114.00136 | 3557 ft | 4 kts | 17° |
| 2026-05-04 17:29 | 51.12846 | -114.00124 | 3558 ft | 4 kts | 303° |
| 2026-05-04 17:29 | 51.12835 | -114.00055 | 3555 ft | 1 kts | 269° |
| 2026-05-04 17:31 | 51.12835 | -114.00057 | 3555 ft | 1 kts | 269° |
| 2026-05-04 17:32 | 51.12776 | -114.00147 | 3556 ft | 13 kts | 180° |
| 2026-05-04 17:33 | 51.12612 | -113.99944 | 3558 ft | 15 kts | 90° |
| 2026-05-04 17:33 | 51.12612 | -113.99744 | 3558 ft | 21 kts | 90° |
| 2026-05-04 17:34 | 51.12472 | -113.99446 | 3559 ft | 16 kts | 179° |
| 2026-05-04 17:34 | 51.12331 | -113.99446 | 3559 ft | 24 kts | 180° |
| 2026-05-04 17:35 | 51.11771 | -113.99447 | 3559 ft | 25 kts | 179° |
| 2026-05-04 17:35 | 51.11430 | -113.99448 | 3558 ft | 28 kts | 180° |
| 2026-05-04 17:35 | 51.11217 | -113.99448 | 3559 ft | 31 kts | 180° |
| 2026-05-04 17:36 | 51.11085 | -113.99447 | 3559 ft | 12 kts | 179° |
| 2026-05-04 17:36 | 51.11035 | -113.99367 | 3559 ft | 11 kts | 96° |
| 2026-05-04 17:36 | 51.11034 | -113.99243 | 3560 ft | 11 kts | 89° |
| 2026-05-04 17:36 | 51.11035 | -113.99122 | 3562 ft | 11 kts | 89° |
| 2026-05-04 17:37 | 51.11084 | -113.99037 | 3558 ft | 14 kts | 4° |
| 2026-05-04 17:37 | 51.11274 | -113.99037 | 3564 ft | 55 kts | 360° |
| 2026-05-04 17:37 | 51.11865 | -113.99036 | 3557 ft | 113 kts | 0° |
| 2026-05-04 17:37 | 51.12823 | -113.99043 | 3562 ft | 161 kts | 359° |
| 2026-05-04 17:38 | 51.14019 | -113.99003 | 3982 ft | 178 kts | 0° |
| 2026-05-04 17:38 | 51.15218 | -113.98977 | 4975 ft | 168 kts | 355° |
| 2026-05-04 17:38 | 51.16411 | -113.99076 | 5497 ft | 181 kts | 354° |
| 2026-05-04 17:38 | 51.17678 | -113.99647 | 5652 ft | 203 kts | 322° |
| 2026-05-04 17:39 | 51.18439 | -114.04259 | 6271 ft | 254 kts | 263° |
| 2026-05-04 17:39 | 51.17948 | -114.07072 | 6760 ft | 268 kts | 257° |
| 2026-05-04 17:39 | 51.17353 | -114.09918 | 7454 ft | 274 kts | 256° |
| 2026-05-04 17:40 | 51.16745 | -114.12767 | 8212 ft | 275 kts | 257° |
| 2026-05-04 17:40 | 51.16133 | -114.15667 | 8983 ft | 277 kts | 258° |
| 2026-05-04 17:40 | 51.15524 | -114.18606 | 9756 ft | 280 kts | 259° |
| 2026-05-04 17:40 | 51.14918 | -114.21575 | 10393 ft | 287 kts | 259° |
| 2026-05-04 17:41 | 51.14297 | -114.24679 | 10554 ft | 308 kts | 259° |
| 2026-05-04 17:41 | 51.13626 | -114.28044 | 10796 ft | 326 kts | 259° |
| 2026-05-04 17:41 | 51.12927 | -114.31525 | 11311 ft | 334 kts | 259° |
| 2026-05-04 17:41 | 51.12213 | -114.35065 | 11981 ft | 337 kts | 259° |
| 2026-05-04 17:42 | 51.11494 | -114.38627 | 12687 ft | 339 kts | 259° |
| 2026-05-04 17:42 | 51.10779 | -114.42175 | 13323 ft | 342 kts | 258° |
| 2026-05-04 17:42 | 51.10052 | -114.45788 | 13990 ft | 345 kts | 258° |
| 2026-05-04 17:42 | 51.09316 | -114.49439 | 14576 ft | 348 kts | 259° |
| 2026-05-04 17:43 | 51.08575 | -114.53120 | 15158 ft | 351 kts | 259° |
| 2026-05-04 17:43 | 51.07826 | -114.56826 | 15757 ft | 353 kts | 259° |
| 2026-05-04 17:43 | 51.07072 | -114.60563 | 16334 ft | 356 kts | 260° |
| 2026-05-04 17:43 | 51.06415 | -114.64356 | 16910 ft | 356 kts | 264° |
| 2026-05-04 17:44 | 51.05846 | -114.68148 | 17499 ft | 358 kts | 264° |
| 2026-05-04 17:44 | 51.05273 | -114.72015 | 18089 ft | 361 kts | 264° |
| 2026-05-04 17:44 | 51.04680 | -114.75912 | 18606 ft | 364 kts | 264° |
| 2026-05-04 17:44 | 51.04071 | -114.79839 | 19074 ft | 367 kts | 264° |
| 2026-05-04 17:45 | 51.03442 | -114.83796 | 19566 ft | 370 kts | 264° |
| 2026-05-04 17:45 | 51.02810 | -114.87719 | 19986 ft | 373 kts | 263° |
| 2026-05-04 17:45 | 51.02157 | -114.91750 | 20316 ft | 379 kts | 263° |
| 2026-05-04 17:45 | 51.01495 | -114.95814 | 20819 ft | 380 kts | 263° |
| 2026-05-04 17:46 | 51.00831 | -114.99882 | 21381 ft | 381 kts | 263° |
| 2026-05-04 17:46 | 51.00165 | -115.03966 | 21847 ft | 384 kts | 264° |
| 2026-05-04 17:46 | 50.99500 | -115.08042 | 22263 ft | 387 kts | 263° |
| 2026-05-04 17:46 | 50.98821 | -115.12193 | 22656 ft | 390 kts | 263° |
| 2026-05-04 17:47 | 50.98088 | -115.16356 | 23103 ft | 392 kts | 263° |
| 2026-05-04 17:47 | 50.97394 | -115.20548 | 23588 ft | 393 kts | 264° |
| 2026-05-04 17:47 | 50.96714 | -115.24793 | 23970 ft | 397 kts | 264° |
| 2026-05-04 17:47 | 50.96032 | -115.28996 | 24404 ft | 399 kts | 264° |
| 2026-05-04 17:48 | 50.95327 | -115.33279 | 24726 ft | 401 kts | 264° |
| 2026-05-04 17:48 | 50.94624 | -115.37585 | 25028 ft | 406 kts | 264° |
| 2026-05-04 17:48 | 50.93908 | -115.41934 | 25443 ft | 407 kts | 264° |
| 2026-05-04 17:48 | 50.93184 | -115.46286 | 25826 ft | 409 kts | 264° |
| 2026-05-04 17:49 | 50.92461 | -115.50601 | 26189 ft | 411 kts | 264° |
| 2026-05-04 17:49 | 50.91725 | -115.54984 | 26539 ft | 412 kts | 264° |
| 2026-05-04 17:49 | 50.90984 | -115.59393 | 26855 ft | 416 kts | 264° |
| 2026-05-04 17:49 | 50.90236 | -115.63836 | 27174 ft | 419 kts | 264° |
| 2026-05-04 17:50 | 50.89479 | -115.68309 | 27453 ft | 420 kts | 264° |
| 2026-05-04 17:50 | 50.88718 | -115.72791 | 27807 ft | 422 kts | 264° |
| 2026-05-04 17:50 | 50.87964 | -115.77239 | 28066 ft | 424 kts | 264° |
| 2026-05-04 17:50 | 50.87198 | -115.81754 | 28388 ft | 426 kts | 264° |
| 2026-05-04 17:51 | 50.86423 | -115.86294 | 28675 ft | 427 kts | 263° |
| 2026-05-04 17:51 | 50.85643 | -115.90842 | 28941 ft | 428 kts | 264° |
| 2026-05-04 17:51 | 50.84855 | -115.95409 | 29167 ft | 429 kts | 264° |
| 2026-05-04 17:51 | 50.84080 | -115.99920 | 29404 ft | 432 kts | 264° |
| 2026-05-04 17:52 | 50.83286 | -116.04533 | 29672 ft | 434 kts | 264° |
| 2026-05-04 17:52 | 50.82486 | -116.09165 | 29993 ft | 435 kts | 264° |
| 2026-05-04 17:52 | 50.81684 | -116.13793 | 30259 ft | 437 kts | 264° |
| 2026-05-04 17:52 | 50.80887 | -116.18379 | 30519 ft | 438 kts | 264° |
| 2026-05-04 17:53 | 50.80077 | -116.23020 | 30825 ft | 436 kts | 263° |
| 2026-05-04 17:53 | 50.79268 | -116.27641 | 31134 ft | 436 kts | 263° |
| 2026-05-04 17:53 | 50.78458 | -116.32265 | 31403 ft | 436 kts | 263° |
| 2026-05-04 17:53 | 50.77647 | -116.36894 | 31699 ft | 436 kts | 263° |
| 2026-05-04 17:54 | 50.76835 | -116.41502 | 32038 ft | 435 kts | 263° |
| 2026-05-04 17:54 | 50.75896 | -116.46006 | 32329 ft | 443 kts | 256° |
| 2026-05-04 17:54 | 50.74483 | -116.50405 | 32590 ft | 456 kts | 246° |
| 2026-05-04 17:54 | 50.72716 | -116.54580 | 32923 ft | 457 kts | 244° |
| 2026-05-04 17:55 | 50.70905 | -116.58712 | 33204 ft | 457 kts | 244° |
| 2026-05-04 17:55 | 50.69107 | -116.62786 | 33349 ft | 457 kts | 244° |
| 2026-05-04 17:55 | 50.67289 | -116.66923 | 33478 ft | 459 kts | 244° |
| 2026-05-04 17:55 | 50.65473 | -116.71089 | 33638 ft | 459 kts | 244° |
| 2026-05-04 17:56 | 50.63665 | -116.75234 | 33920 ft | 457 kts | 244° |
| 2026-05-04 17:56 | 50.61867 | -116.79358 | 34156 ft | 457 kts | 245° |
| 2026-05-04 17:56 | 50.60095 | -116.83434 | 34296 ft | 458 kts | 245° |
| 2026-05-04 17:56 | 50.58291 | -116.87586 | 34449 ft | 459 kts | 245° |
| 2026-05-04 17:57 | 50.56487 | -116.91731 | 34596 ft | 459 kts | 245° |
| 2026-05-04 17:57 | 50.54677 | -116.95888 | 34806 ft | 459 kts | 245° |
| 2026-05-04 17:57 | 50.51071 | -117.04144 | 35115 ft | 460 kts | 245° |
| 2026-05-04 17:58 | 50.49253 | -117.08296 | 35321 ft | 460 kts | 245° |
| 2026-05-04 17:58 | 50.47434 | -117.12446 | 35512 ft | 461 kts | 245° |
| 2026-05-04 17:58 | 50.45635 | -117.16544 | 35711 ft | 461 kts | 245° |
| 2026-05-04 17:58 | 50.43807 | -117.20695 | 35918 ft | 461 kts | 245° |
| 2026-05-04 17:59 | 50.40155 | -117.28992 | 35991 ft | 461 kts | 245° |
| 2026-05-04 18:00 | 50.34690 | -117.41326 | 35973 ft | 461 kts | 245° |
| 2026-05-04 18:00 | 50.31021 | -117.49581 | 35991 ft | 463 kts | 245° |
| 2026-05-04 18:01 | 50.27352 | -117.57819 | 35980 ft | 466 kts | 245° |
| 2026-05-04 18:01 | 50.23605 | -117.66203 | 35996 ft | 474 kts | 244° |
| 2026-05-04 18:02 | 50.17890 | -117.78937 | 35964 ft | 484 kts | 244° |
| 2026-05-04 18:02 | 50.13997 | -117.87566 | 35963 ft | 486 kts | 244° |
| 2026-05-04 18:03 | 50.10108 | -117.96143 | 35966 ft | 483 kts | 244° |
| 2026-05-04 18:03 | 50.06259 | -118.04617 | 35956 ft | 481 kts | 244° |
| 2026-05-04 18:04 | 50.02397 | -118.13104 | 35942 ft | 480 kts | 244° |
| 2026-05-04 18:05 | 49.96610 | -118.25766 | 35964 ft | 477 kts | 244° |
| 2026-05-04 18:05 | 49.92768 | -118.34143 | 35950 ft | 478 kts | 244° |
| 2026-05-04 18:06 | 49.86962 | -118.46745 | 35953 ft | 478 kts | 243° |
| 2026-05-04 18:06 | 49.83106 | -118.55089 | 35945 ft | 480 kts | 243° |
| 2026-05-04 18:07 | 49.79190 | -118.63531 | 35944 ft | 483 kts | 243° |
| 2026-05-04 18:07 | 49.75272 | -118.71944 | 35910 ft | 485 kts | 243° |
| 2026-05-04 18:08 | 49.71305 | -118.80440 | 35941 ft | 486 kts | 242° |
| 2026-05-04 18:08 | 49.67357 | -118.88866 | 35929 ft | 487 kts | 242° |
| 2026-05-04 18:09 | 49.59415 | -119.05735 | 35876 ft | 487 kts | 242° |
| 2026-05-04 18:10 | 49.55422 | -119.14184 | 35938 ft | 487 kts | 242° |
| 2026-05-04 18:10 | 49.51412 | -119.22636 | 35929 ft | 489 kts | 242° |
| 2026-05-04 18:11 | 49.47401 | -119.31060 | 35918 ft | 490 kts | 242° |
| 2026-05-04 18:11 | 49.43394 | -119.39453 | 35884 ft | 490 kts | 241° |
| 2026-05-04 18:12 | 49.39350 | -119.47895 | 35909 ft | 490 kts | 241° |
| 2026-05-04 18:12 | 49.35301 | -119.56320 | 35918 ft | 490 kts | 241° |
| 2026-05-04 18:13 | 49.31269 | -119.64682 | 35913 ft | 490 kts | 241° |
| 2026-05-04 18:14 | 49.25196 | -119.77231 | 35927 ft | 489 kts | 240° |
| 2026-05-04 18:14 | 49.21140 | -119.85593 | 35952 ft | 489 kts | 240° |
| 2026-05-04 18:15 | 49.13008 | -120.02254 | 35974 ft | 490 kts | 240° |
| 2026-05-04 18:16 | 49.08913 | -120.10603 | 35990 ft | 490 kts | 240° |
| 2026-05-04 18:16 | 49.04828 | -120.18906 | 35981 ft | 491 kts | 239° |
| 2026-05-04 18:17 | 48.98666 | -120.31379 | 35999 ft | 490 kts | 240° |
| 2026-05-04 18:18 | 48.92522 | -120.43769 | 35984 ft | 491 kts | 239° |
| 2026-05-04 18:18 | 48.88394 | -120.52058 | 35993 ft | 491 kts | 239° |
| 2026-05-04 18:19 | 48.82205 | -120.64436 | 35973 ft | 492 kts | 239° |
| 2026-05-04 18:19 | 48.78048 | -120.72719 | 35971 ft | 492 kts | 239° |
| 2026-05-04 18:20 | 48.73914 | -120.80931 | 35984 ft | 494 kts | 239° |
| 2026-05-04 18:20 | 48.69728 | -120.89224 | 35955 ft | 495 kts | 239° |
| 2026-05-04 18:21 | 48.65530 | -120.97511 | 35951 ft | 495 kts | 238° |
| 2026-05-04 18:21 | 48.61381 | -121.05674 | 35953 ft | 492 kts | 238° |
| 2026-05-04 18:22 | 48.57190 | -121.13902 | 35947 ft | 494 kts | 238° |
| 2026-05-04 18:22 | 48.53017 | -121.22078 | 35958 ft | 491 kts | 238° |
| 2026-05-04 18:23 | 48.48813 | -121.30253 | 35925 ft | 492 kts | 238° |
| 2026-05-04 18:23 | 48.44645 | -121.38363 | 35922 ft | 492 kts | 238° |
| 2026-05-04 18:24 | 48.40456 | -121.46503 | 35932 ft | 489 kts | 239° |
| 2026-05-04 18:24 | 48.36309 | -121.54549 | 35925 ft | 488 kts | 238° |
| 2026-05-04 18:25 | 48.32107 | -121.62599 | 35907 ft | 490 kts | 237° |
| 2026-05-04 18:25 | 48.27898 | -121.70681 | 35926 ft | 491 kts | 237° |
| 2026-05-04 18:26 | 48.23692 | -121.78744 | 35938 ft | 494 kts | 237° |
| 2026-05-04 18:26 | 48.19446 | -121.86857 | 35939 ft | 495 kts | 237° |
| 2026-05-04 18:27 | 48.15214 | -121.94914 | 35919 ft | 495 kts | 237° |
| 2026-05-04 18:27 | 48.10933 | -122.03040 | 35942 ft | 496 kts | 237° |
| 2026-05-04 18:28 | 48.06643 | -122.11162 | 35933 ft | 497 kts | 237° |
| 2026-05-04 18:28 | 48.02366 | -122.19232 | 35954 ft | 498 kts | 237° |
| 2026-05-04 18:29 | 47.98056 | -122.27341 | 35942 ft | 498 kts | 236° |
| 2026-05-04 18:29 | 47.93763 | -122.35392 | 35951 ft | 498 kts | 236° |
| 2026-05-04 18:30 | 47.87283 | -122.47503 | 35946 ft | 498 kts | 236° |
| 2026-05-04 18:31 | 47.82979 | -122.55518 | 35932 ft | 498 kts | 236° |
| 2026-05-04 18:31 | 47.78632 | -122.63587 | 35928 ft | 498 kts | 235° |
| 2026-05-04 18:32 | 47.74314 | -122.71578 | 35938 ft | 498 kts | 235° |
| 2026-05-04 18:32 | 47.69963 | -122.79610 | 35939 ft | 498 kts | 235° |
| 2026-05-04 18:33 | 47.65636 | -122.87571 | 35942 ft | 497 kts | 235° |
| 2026-05-04 18:33 | 47.61282 | -122.95559 | 35949 ft | 498 kts | 235° |
| 2026-05-04 18:34 | 47.56922 | -123.03535 | 35945 ft | 498 kts | 234° |
| 2026-05-04 18:34 | 47.52582 | -123.11452 | 35936 ft | 498 kts | 234° |
| 2026-05-04 18:35 | 47.48199 | -123.19425 | 35954 ft | 498 kts | 234° |
| 2026-05-04 18:35 | 47.43839 | -123.27330 | 35944 ft | 499 kts | 234° |
| 2026-05-04 18:36 | 47.39451 | -123.35267 | 35954 ft | 499 kts | 234° |
| 2026-05-04 18:36 | 47.35047 | -123.43210 | 35945 ft | 500 kts | 233° |
| 2026-05-04 18:37 | 47.30660 | -123.51092 | 35965 ft | 500 kts | 233° |
| 2026-05-04 18:37 | 47.26238 | -123.59015 | 35974 ft | 500 kts | 233° |
| 2026-05-04 18:38 | 47.21838 | -123.66880 | 35991 ft | 500 kts | 233° |
| 2026-05-04 18:38 | 47.17404 | -123.74783 | 35990 ft | 500 kts | 233° |
| 2026-05-04 18:39 | 47.12965 | -123.82671 | 35997 ft | 500 kts | 233° |
| 2026-05-04 18:39 | 47.08540 | -123.90512 | 36003 ft | 501 kts | 233° |
| 2026-05-04 18:40 | 47.04111 | -123.98338 | 35988 ft | 501 kts | 232° |
| 2026-05-04 18:40 | 46.99651 | -124.06198 | 35995 ft | 500 kts | 232° |
| 2026-05-04 18:41 | 46.95191 | -124.14036 | 36002 ft | 500 kts | 232° |
| 2026-05-04 18:41 | 46.90837 | -124.21923 | 36004 ft | 500 kts | 234° |
| 2026-05-04 18:42 | 46.86555 | -124.29967 | 35997 ft | 500 kts | 234° |
| 2026-05-04 18:42 | 46.82298 | -124.37942 | 35995 ft | 501 kts | 234° |
| 2026-05-04 18:43 | 46.77989 | -124.45942 | 35993 ft | 501 kts | 234° |
| 2026-05-04 18:43 | 46.74388 | -124.52587 | 35988 ft | 501 kts | 233° |
| 2026-05-04 18:44 | 46.70054 | -124.60559 | 35983 ft | 501 kts | 233° |
| 2026-05-04 18:44 | 46.65739 | -124.68476 | 35993 ft | 501 kts | 233° |
| 2026-05-04 18:45 | 46.61395 | -124.76425 | 35990 ft | 501 kts | 233° |
| 2026-05-04 18:45 | 46.57071 | -124.84316 | 35977 ft | 502 kts | 233° |
| 2026-05-04 18:46 | 46.52711 | -124.92249 | 35988 ft | 502 kts | 233° |
| 2026-05-04 18:46 | 46.48368 | -125.00129 | 35982 ft | 502 kts | 233° |
| 2026-05-04 18:47 | 46.43999 | -125.08033 | 35988 ft | 502 kts | 233° |
| 2026-05-04 18:47 | 46.39645 | -125.15889 | 35982 ft | 502 kts | 232° |
| 2026-05-04 18:48 | 46.35258 | -125.23781 | 35988 ft | 502 kts | 232° |
| 2026-05-04 18:48 | 46.30886 | -125.31624 | 35983 ft | 503 kts | 232° |
| 2026-05-04 18:49 | 46.26484 | -125.39501 | 35977 ft | 503 kts | 232° |
| 2026-05-04 18:49 | 46.22101 | -125.47317 | 35986 ft | 504 kts | 232° |
| 2026-05-04 18:50 | 46.17672 | -125.55195 | 35990 ft | 504 kts | 232° |
| 2026-05-04 18:50 | 46.13265 | -125.63013 | 35986 ft | 505 kts | 232° |
| 2026-05-04 18:51 | 46.08829 | -125.70859 | 35986 ft | 505 kts | 231° |
| 2026-05-04 18:51 | 46.04374 | -125.78717 | 35987 ft | 506 kts | 231° |
| 2026-05-04 18:52 | 45.99938 | -125.86520 | 35992 ft | 506 kts | 231° |
| 2026-05-04 18:52 | 45.95467 | -125.94362 | 35985 ft | 506 kts | 231° |
| 2026-05-04 18:53 | 45.91015 | -126.02148 | 35994 ft | 506 kts | 231° |
| 2026-05-04 18:53 | 45.86534 | -126.09963 | 35994 ft | 506 kts | 231° |
| 2026-05-04 18:54 | 45.82075 | -126.17720 | 35985 ft | 506 kts | 231° |
| 2026-05-04 18:54 | 45.77581 | -126.25514 | 35992 ft | 506 kts | 231° |
| 2026-05-04 18:55 | 45.73085 | -126.33290 | 35990 ft | 506 kts | 231° |
| 2026-05-04 18:55 | 45.66354 | -126.44895 | 35990 ft | 506 kts | 230° |
| 2026-05-04 18:56 | 45.61868 | -126.52600 | 35999 ft | 506 kts | 230° |
| 2026-05-04 18:56 | 45.57352 | -126.60339 | 36007 ft | 507 kts | 230° |
| 2026-05-04 18:57 | 45.52823 | -126.68078 | 36000 ft | 508 kts | 230° |
| 2026-05-04 18:57 | 45.47739 | -126.74954 | 36002 ft | 505 kts | 213° |
| 2026-05-04 18:58 | 45.41951 | -126.80664 | 36001 ft | 506 kts | 213° |
| 2026-05-04 18:58 | 45.36143 | -126.86341 | 36001 ft | 506 kts | 213° |
| 2026-05-04 18:59 | 45.30386 | -126.92039 | 36003 ft | 507 kts | 213° |
| 2026-05-04 18:59 | 45.24603 | -126.97801 | 36005 ft | 507 kts | 213° |
| 2026-05-04 19:00 | 45.18858 | -127.03522 | 36006 ft | 507 kts | 213° |
| 2026-05-04 19:00 | 45.13069 | -127.09268 | 36010 ft | 508 kts | 213° |
| 2026-05-04 19:01 | 45.07301 | -127.14975 | 36012 ft | 508 kts | 213° |
| 2026-05-04 19:01 | 45.01484 | -127.20715 | 36007 ft | 509 kts | 213° |
| 2026-05-04 19:02 | 44.95675 | -127.26432 | 36008 ft | 509 kts | 213° |
| 2026-05-04 19:02 | 44.89894 | -127.32109 | 36013 ft | 509 kts | 213° |
| 2026-05-04 19:03 | 44.84071 | -127.37812 | 36013 ft | 509 kts | 213° |
| 2026-05-04 19:03 | 44.78285 | -127.43465 | 36025 ft | 508 kts | 212° |
| 2026-05-04 19:04 | 44.72480 | -127.49122 | 36022 ft | 509 kts | 212° |
| 2026-05-04 19:04 | 44.66650 | -127.54789 | 36019 ft | 509 kts | 212° |
| 2026-05-04 19:05 | 44.60812 | -127.60450 | 36018 ft | 509 kts | 212° |
| 2026-05-04 19:05 | 44.55016 | -127.66056 | 36022 ft | 509 kts | 212° |
| 2026-05-04 19:06 | 44.49174 | -127.71693 | 36016 ft | 509 kts | 212° |
| 2026-05-04 19:06 | 44.43377 | -127.77273 | 36025 ft | 508 kts | 212° |
| 2026-05-04 19:07 | 44.37528 | -127.82889 | 36024 ft | 508 kts | 212° |
| 2026-05-04 19:07 | 44.31696 | -127.88475 | 36027 ft | 508 kts | 212° |
| 2026-05-04 19:08 | 44.25884 | -127.94028 | 36028 ft | 508 kts | 212° |
| 2026-05-04 19:08 | 44.20042 | -127.99595 | 36029 ft | 508 kts | 212° |
| 2026-05-04 19:09 | 44.14242 | -128.05111 | 36032 ft | 507 kts | 211° |
| 2026-05-04 19:09 | 44.08398 | -128.10653 | 36032 ft | 507 kts | 211° |
| 2026-05-04 19:10 | 44.02599 | -128.16140 | 36053 ft | 507 kts | 211° |
| 2026-05-04 19:10 | 43.96752 | -128.21659 | 36042 ft | 507 kts | 211° |
| 2026-05-04 19:11 | 43.90944 | -128.27128 | 36037 ft | 507 kts | 211° |
| 2026-05-04 19:11 | 43.85091 | -128.32626 | 36041 ft | 507 kts | 211° |
| 2026-05-04 19:12 | 43.76339 | -128.40822 | 36048 ft | 507 kts | 211° |
| 2026-05-04 19:13 | 43.70483 | -128.46290 | 36045 ft | 507 kts | 211° |
| 2026-05-04 19:13 | 43.64625 | -128.51747 | 36059 ft | 507 kts | 211° |
| 2026-05-04 19:14 | 43.58782 | -128.57177 | 36051 ft | 508 kts | 210° |
| 2026-05-04 19:14 | 43.52911 | -128.62619 | 36051 ft | 508 kts | 210° |
| 2026-05-04 19:15 | 43.47070 | -128.68021 | 36055 ft | 509 kts | 210° |
| 2026-05-04 19:15 | 43.41178 | -128.73457 | 36055 ft | 509 kts | 210° |
| 2026-05-04 19:16 | 43.35290 | -128.78877 | 36062 ft | 509 kts | 210° |
| 2026-05-04 19:16 | 43.29430 | -128.84259 | 36072 ft | 509 kts | 210° |
| 2026-05-04 19:17 | 43.23557 | -128.89639 | 36064 ft | 510 kts | 210° |
| 2026-05-04 19:17 | 43.17649 | -128.95039 | 36060 ft | 510 kts | 210° |
| 2026-05-04 19:18 | 43.11755 | -129.00413 | 36066 ft | 510 kts | 210° |
| 2026-05-04 19:18 | 43.05823 | -129.05809 | 36065 ft | 510 kts | 210° |
| 2026-05-04 19:19 | 42.99929 | -129.11158 | 36059 ft | 510 kts | 210° |
| 2026-05-04 19:19 | 42.93992 | -129.16534 | 36065 ft | 510 kts | 210° |
| 2026-05-04 19:20 | 42.88094 | -129.21860 | 36069 ft | 511 kts | 209° |
| 2026-05-04 19:20 | 42.82159 | -129.27210 | 36075 ft | 511 kts | 209° |
| 2026-05-04 19:21 | 42.76212 | -129.32556 | 36073 ft | 511 kts | 209° |
| 2026-05-04 19:21 | 42.70310 | -129.37850 | 36074 ft | 511 kts | 209° |
| 2026-05-04 19:22 | 42.64370 | -129.43166 | 36077 ft | 510 kts | 209° |
| 2026-05-04 19:22 | 42.58461 | -129.48442 | 36079 ft | 510 kts | 209° |
| 2026-05-04 19:23 | 42.52519 | -129.53735 | 36081 ft | 510 kts | 208° |
| 2026-05-04 19:23 | 42.46574 | -129.59018 | 36084 ft | 510 kts | 208° |
| 2026-05-04 19:24 | 42.40663 | -129.64260 | 36091 ft | 510 kts | 208° |
| 2026-05-04 19:24 | 42.34715 | -129.69521 | 36095 ft | 510 kts | 208° |
| 2026-05-04 19:25 | 42.28798 | -129.74744 | 36085 ft | 510 kts | 208° |
| 2026-05-04 19:25 | 42.22850 | -129.79982 | 36096 ft | 509 kts | 208° |
| 2026-05-04 19:26 | 42.16934 | -129.85180 | 36106 ft | 510 kts | 208° |
| 2026-05-04 19:26 | 42.10980 | -129.90401 | 36090 ft | 510 kts | 208° |
| 2026-05-04 19:27 | 42.05054 | -129.95586 | 36096 ft | 510 kts | 208° |
| 2026-05-04 19:27 | 41.99103 | -130.00787 | 36095 ft | 509 kts | 208° |
| 2026-05-04 19:28 | 41.93225 | -130.06149 | 36095 ft | 510 kts | 210° |
| 2026-05-04 19:28 | 41.87431 | -130.11551 | 36098 ft | 510 kts | 210° |
| 2026-05-04 19:29 | 41.81584 | -130.16974 | 36104 ft | 509 kts | 210° |
| 2026-05-04 19:29 | 41.75746 | -130.22348 | 36103 ft | 509 kts | 210° |
| 2026-05-04 19:30 | 41.69928 | -130.27678 | 36105 ft | 509 kts | 210° |
| 2026-05-04 19:30 | 41.64075 | -130.33025 | 36108 ft | 509 kts | 210° |
| 2026-05-04 19:31 | 41.58217 | -130.38368 | 36108 ft | 509 kts | 210° |
| 2026-05-04 19:31 | 41.52389 | -130.43672 | 36106 ft | 509 kts | 210° |
| 2026-05-04 19:32 | 41.46520 | -130.49002 | 36115 ft | 510 kts | 210° |
| 2026-05-04 19:32 | 41.40683 | -130.54291 | 36112 ft | 509 kts | 210° |
| 2026-05-04 19:33 | 41.34809 | -130.59602 | 36109 ft | 509 kts | 210° |
| 2026-05-04 19:33 | 41.28984 | -130.64857 | 36118 ft | 508 kts | 210° |
| 2026-05-04 19:34 | 41.23117 | -130.70138 | 36108 ft | 508 kts | 210° |
| 2026-05-04 19:34 | 41.17290 | -130.75372 | 36114 ft | 507 kts | 210° |
| 2026-05-04 19:35 | 41.11437 | -130.80617 | 36132 ft | 507 kts | 210° |
| 2026-05-04 19:35 | 41.05618 | -130.85821 | 36122 ft | 507 kts | 210° |
| 2026-05-04 19:36 | 40.99758 | -130.91050 | 36116 ft | 506 kts | 210° |
| 2026-05-04 19:36 | 40.93943 | -130.96227 | 36126 ft | 505 kts | 210° |
| 2026-05-04 19:37 | 40.88103 | -131.01416 | 36123 ft | 505 kts | 210° |
| 2026-05-04 19:37 | 40.82265 | -131.06591 | 36131 ft | 504 kts | 210° |
| 2026-05-04 19:38 | 40.76476 | -131.11712 | 36127 ft | 504 kts | 210° |
| 2026-05-04 19:38 | 40.70646 | -131.16858 | 36125 ft | 503 kts | 210° |
| 2026-05-04 19:39 | 40.64860 | -131.21955 | 36126 ft | 503 kts | 210° |
| 2026-05-04 19:39 | 40.59041 | -131.27069 | 36130 ft | 502 kts | 210° |
| 2026-05-04 19:40 | 40.53222 | -131.32174 | 36138 ft | 502 kts | 210° |
| 2026-05-04 19:40 | 40.47440 | -131.37234 | 36139 ft | 501 kts | 210° |
| 2026-05-04 19:41 | 40.41622 | -131.42316 | 36153 ft | 501 kts | 211° |
| 2026-05-04 19:41 | 40.35851 | -131.47346 | 36139 ft | 500 kts | 210° |
| 2026-05-04 19:42 | 40.30030 | -131.52409 | 36141 ft | 500 kts | 211° |
| 2026-05-04 19:42 | 40.24275 | -131.57403 | 36141 ft | 499 kts | 211° |
| 2026-05-04 19:43 | 40.18476 | -131.62427 | 36141 ft | 498 kts | 211° |
| 2026-05-04 19:43 | 40.12725 | -131.67397 | 36140 ft | 498 kts | 211° |
| 2026-05-04 19:44 | 40.06941 | -131.72386 | 36152 ft | 498 kts | 211° |
| 2026-05-04 19:44 | 40.01183 | -131.77342 | 36146 ft | 497 kts | 211° |
| 2026-05-04 19:45 | 39.95395 | -131.82314 | 36148 ft | 497 kts | 211° |
| 2026-05-04 19:45 | 39.89610 | -131.87273 | 36145 ft | 497 kts | 211° |
| 2026-05-04 19:46 | 39.83857 | -131.92195 | 36147 ft | 497 kts | 211° |
| 2026-05-04 19:46 | 39.78116 | -131.97096 | 36148 ft | 496 kts | 211° |
| 2026-05-04 19:47 | 39.72336 | -132.02020 | 36161 ft | 496 kts | 211° |
| 2026-05-04 19:47 | 39.66562 | -132.06930 | 36149 ft | 495 kts | 211° |
| 2026-05-04 19:48 | 39.60794 | -132.11825 | 36158 ft | 494 kts | 211° |
| 2026-05-04 19:48 | 39.55068 | -132.16673 | 36153 ft | 494 kts | 211° |
| 2026-05-04 19:49 | 39.49307 | -132.21543 | 36151 ft | 493 kts | 212° |
| 2026-05-04 19:49 | 39.43592 | -132.26363 | 36155 ft | 493 kts | 212° |
| 2026-05-04 19:50 | 39.37834 | -132.31210 | 36161 ft | 493 kts | 212° |
| 2026-05-04 19:50 | 39.32116 | -132.36013 | 36161 ft | 492 kts | 212° |
| 2026-05-04 19:51 | 39.26359 | -132.40841 | 36161 ft | 492 kts | 212° |
| 2026-05-04 19:51 | 39.20648 | -132.45619 | 36160 ft | 492 kts | 212° |
| 2026-05-04 19:52 | 39.14903 | -132.50417 | 36164 ft | 491 kts | 212° |
| 2026-05-04 19:52 | 39.09190 | -132.55179 | 36180 ft | 491 kts | 212° |
| 2026-05-04 19:53 | 39.03444 | -132.59959 | 36168 ft | 491 kts | 212° |
| 2026-05-04 19:53 | 38.97690 | -132.64736 | 36171 ft | 491 kts | 212° |
| 2026-05-04 19:54 | 38.91976 | -132.69470 | 36170 ft | 491 kts | 212° |
| 2026-05-04 19:54 | 38.86224 | -132.74227 | 36166 ft | 491 kts | 212° |
| 2026-05-04 19:55 | 38.80505 | -132.78947 | 36171 ft | 491 kts | 212° |
| 2026-05-04 19:55 | 38.74756 | -132.83683 | 36184 ft | 491 kts | 212° |
| 2026-05-04 19:56 | 38.68994 | -132.88420 | 36175 ft | 491 kts | 212° |
| 2026-05-04 19:56 | 38.63275 | -132.93113 | 36174 ft | 491 kts | 212° |
| 2026-05-04 19:57 | 38.57512 | -132.97834 | 36172 ft | 491 kts | 213° |
| 2026-05-04 19:57 | 38.51784 | -133.02516 | 36180 ft | 491 kts | 213° |
| 2026-05-04 19:58 | 38.46013 | -133.07223 | 36179 ft | 491 kts | 213° |
| 2026-05-04 19:58 | 38.40268 | -133.11902 | 36191 ft | 491 kts | 213° |
| 2026-05-04 19:59 | 38.34493 | -133.16595 | 36183 ft | 492 kts | 213° |
| 2026-05-04 19:59 | 38.28751 | -133.21253 | 36177 ft | 492 kts | 213° |
| 2026-05-04 20:00 | 38.22974 | -133.25930 | 36178 ft | 491 kts | 213° |
| 2026-05-04 20:00 | 38.17226 | -133.30575 | 36185 ft | 491 kts | 213° |
| 2026-05-04 20:01 | 38.11447 | -133.35237 | 36194 ft | 492 kts | 213° |
| 2026-05-04 20:01 | 38.05690 | -133.39871 | 36186 ft | 492 kts | 213° |
| 2026-05-04 20:02 | 38.00863 | -133.43750 | 36297 ft | 494 kts | 213° |
| 2026-05-04 20:02 | 37.97961 | -133.46080 | 36456 ft | 493 kts | 213° |
| 2026-05-04 20:02 | 37.95065 | -133.48403 | 36631 ft | 492 kts | 213° |
| 2026-05-04 20:02 | 37.92167 | -133.50724 | 36810 ft | 492 kts | 213° |
| 2026-05-04 20:03 | 37.88337 | -133.53788 | 36987 ft | 492 kts | 213° |
| 2026-05-04 20:03 | 37.83510 | -133.57645 | 37197 ft | 492 kts | 214° |
| 2026-05-04 20:03 | 37.80599 | -133.59968 | 37360 ft | 492 kts | 214° |
| 2026-05-04 20:04 | 37.77702 | -133.62278 | 37557 ft | 491 kts | 214° |
| 2026-05-04 20:04 | 37.74856 | -133.64544 | 37767 ft | 489 kts | 214° |
| 2026-05-04 20:04 | 37.71980 | -133.66833 | 38005 ft | 487 kts | 214° |
| 2026-05-04 20:04 | 37.69109 | -133.69115 | 38193 ft | 485 kts | 214° |
| 2026-05-04 20:05 | 37.66241 | -133.71394 | 38170 ft | 486 kts | 214° |
| 2026-05-04 20:05 | 37.60560 | -133.75901 | 38192 ft | 483 kts | 214° |
| 2026-05-04 20:06 | 37.54882 | -133.80397 | 38183 ft | 480 kts | 214° |
| 2026-05-04 20:06 | 37.49259 | -133.84841 | 38202 ft | 478 kts | 214° |
| 2026-05-04 20:07 | 37.43614 | -133.89295 | 38206 ft | 477 kts | 214° |
| 2026-05-04 20:07 | 37.38014 | -133.93706 | 38199 ft | 477 kts | 214° |
| 2026-05-04 20:08 | 37.32411 | -133.98111 | 38208 ft | 478 kts | 214° |
| 2026-05-04 20:08 | 37.26756 | -134.02549 | 38193 ft | 480 kts | 214° |
| 2026-05-04 20:09 | 37.21077 | -134.06998 | 38213 ft | 481 kts | 215° |
| 2026-05-04 20:09 | 37.15410 | -134.11430 | 38216 ft | 484 kts | 215° |
| 2026-05-04 20:10 | 37.09669 | -134.15910 | 38203 ft | 485 kts | 215° |
| 2026-05-04 20:10 | 37.03961 | -134.20357 | 38214 ft | 486 kts | 215° |
| 2026-05-04 20:11 | 36.98205 | -134.24834 | 38212 ft | 487 kts | 215° |
| 2026-05-04 20:11 | 36.92440 | -134.29308 | 38211 ft | 487 kts | 215° |
| 2026-05-04 20:12 | 36.86711 | -134.33748 | 38229 ft | 487 kts | 215° |
| 2026-05-04 20:12 | 36.80943 | -134.38209 | 38201 ft | 486 kts | 216° |
| 2026-05-04 20:13 | 36.75214 | -134.42633 | 38216 ft | 485 kts | 216° |
| 2026-05-04 20:13 | 36.69504 | -134.47034 | 38195 ft | 484 kts | 216° |